sensor_id;sensor_type;location;lat;lon;timestamp;P1;durP1;ratioP1;P2;durP2;ratioP2
55435;SDS011;41307;53.142;6.430;2022-08-07T00:01:33;8.15;;;4.70;;
55435;SDS011;41307;53.142;6.430;2022-08-07T00:03:59;7.00;;;4.47;;
55435;SDS011;41307;53.142;6.430;2022-08-07T00:06:25;6.53;;;4.47;;
55435;SDS011;41307;53.142;6.430;2022-08-07T00:08:51;6.88;;;4.40;;
55435;SDS011;41307;53.142;6.430;2022-08-07T00:11:17;8.32;;;4.80;;
55435;SDS011;41307;53.142;6.430;2022-08-07T00:13:42;7.40;;;4.22;;
55435;SDS011;41307;53.142;6.430;2022-08-07T00:16:10;6.57;;;4.50;;
55435;SDS011;41307;53.142;6.430;2022-08-07T00:18:37;6.50;;;4.68;;
55435;SDS011;41307;53.142;6.430;2022-08-07T00:21:04;8.70;;;4.93;;
55435;SDS011;41307;53.142;6.430;2022-08-07T00:23:31;7.20;;;4.40;;
55435;SDS011;41307;53.142;6.430;2022-08-07T00:26:02;5.75;;;4.43;;
55435;SDS011;41307;53.142;6.430;2022-08-07T00:28:30;7.53;;;4.32;;
55435;SDS011;41307;53.142;6.430;2022-08-07T00:30:57;6.30;;;4.70;;
55435;SDS011;41307;53.142;6.430;2022-08-07T00:33:23;5.53;;;4.25;;
55435;SDS011;41307;53.142;6.430;2022-08-07T00:35:53;8.35;;;4.75;;
55435;SDS011;41307;53.142;6.430;2022-08-07T00:38:19;6.65;;;4.53;;
55435;SDS011;41307;53.142;6.430;2022-08-07T00:40:46;6.25;;;4.38;;
55435;SDS011;41307;53.142;6.430;2022-08-07T00:43:12;7.47;;;4.38;;
55435;SDS011;41307;53.142;6.430;2022-08-07T00:45:38;7.70;;;4.60;;
55435;SDS011;41307;53.142;6.430;2022-08-07T00:48:05;6.78;;;4.70;;
55435;SDS011;41307;53.142;6.430;2022-08-07T00:50:32;7.07;;;4.63;;
55435;SDS011;41307;53.142;6.430;2022-08-07T00:52:58;6.88;;;4.95;;
55435;SDS011;41307;53.142;6.430;2022-08-07T00:55:24;7.60;;;5.13;;
55435;SDS011;41307;53.142;6.430;2022-08-07T00:57:50;6.53;;;4.80;;
55435;SDS011;41307;53.142;6.430;2022-08-07T01:00:16;6.18;;;4.80;;
55435;SDS011;41307;53.142;6.430;2022-08-07T01:02:43;8.52;;;5.10;;
55435;SDS011;41307;53.142;6.430;2022-08-07T01:05:10;7.32;;;4.70;;
55435;SDS011;41307;53.142;6.430;2022-08-07T01:07:37;5.65;;;4.43;;
55435;SDS011;41307;53.142;6.430;2022-08-07T01:10:05;7.65;;;4.95;;
55435;SDS011;41307;53.142;6.430;2022-08-07T01:12:31;6.93;;;5.00;;
55435;SDS011;41307;53.142;6.430;2022-08-07T01:14:58;8.23;;;4.90;;
55435;SDS011;41307;53.142;6.430;2022-08-07T01:17:24;7.00;;;4.82;;
55435;SDS011;41307;53.142;6.430;2022-08-07T01:19:51;7.18;;;4.68;;
55435;SDS011;41307;53.142;6.430;2022-08-07T01:22:20;8.23;;;5.40;;
55435;SDS011;41307;53.142;6.430;2022-08-07T01:24:46;6.57;;;5.18;;
55435;SDS011;41307;53.142;6.430;2022-08-07T01:27:13;7.07;;;5.40;;
55435;SDS011;41307;53.142;6.430;2022-08-07T01:29:39;5.85;;;4.78;;
55435;SDS011;41307;53.142;6.430;2022-08-07T01:32:06;7.03;;;5.10;;
55435;SDS011;41307;53.142;6.430;2022-08-07T01:34:32;8.57;;;5.72;;
55435;SDS011;41307;53.142;6.430;2022-08-07T01:36:59;9.10;;;5.85;;
55435;SDS011;41307;53.142;6.430;2022-08-07T01:39:25;9.20;;;5.88;;
55435;SDS011;41307;53.142;6.430;2022-08-07T01:41:52;8.18;;;5.85;;
55435;SDS011;41307;53.142;6.430;2022-08-07T01:44:18;8.68;;;5.18;;
55435;SDS011;41307;53.142;6.430;2022-08-07T01:46:44;8.77;;;5.60;;
55435;SDS011;41307;53.142;6.430;2022-08-07T01:49:10;8.13;;;5.82;;
55435;SDS011;41307;53.142;6.430;2022-08-07T01:51:36;7.30;;;5.28;;
55435;SDS011;41307;53.142;6.430;2022-08-07T01:54:07;8.68;;;5.68;;
55435;SDS011;41307;53.142;6.430;2022-08-07T01:56:36;9.18;;;6.40;;
55435;SDS011;41307;53.142;6.430;2022-08-07T01:59:14;8.90;;;6.03;;
55435;SDS011;41307;53.142;6.430;2022-08-07T02:01:52;9.85;;;5.93;;
55435;SDS011;41307;53.142;6.430;2022-08-07T02:04:38;7.32;;;5.70;;
55435;SDS011;41307;53.142;6.430;2022-08-07T02:07:17;8.18;;;5.85;;
55435;SDS011;41307;53.142;6.430;2022-08-07T02:09:46;10.35;;;6.03;;
55435;SDS011;41307;53.142;6.430;2022-08-07T02:12:14;7.85;;;6.05;;
55435;SDS011;41307;53.142;6.430;2022-08-07T02:14:49;8.80;;;5.80;;
55435;SDS011;41307;53.142;6.430;2022-08-07T02:17:17;8.97;;;6.17;;
55435;SDS011;41307;53.142;6.430;2022-08-07T02:19:45;8.90;;;6.10;;
55435;SDS011;41307;53.142;6.430;2022-08-07T02:22:13;6.95;;;5.03;;
55435;SDS011;41307;53.142;6.430;2022-08-07T02:24:41;8.88;;;5.25;;
55435;SDS011;41307;53.142;6.430;2022-08-07T02:27:08;6.10;;;4.72;;
55435;SDS011;41307;53.142;6.430;2022-08-07T02:29:36;6.45;;;4.68;;
55435;SDS011;41307;53.142;6.430;2022-08-07T02:32:03;8.25;;;5.32;;
55435;SDS011;41307;53.142;6.430;2022-08-07T02:34:31;7.63;;;5.15;;
55435;SDS011;41307;53.142;6.430;2022-08-07T02:36:58;8.27;;;5.30;;
55435;SDS011;41307;53.142;6.430;2022-08-07T02:39:25;7.93;;;5.55;;
55435;SDS011;41307;53.142;6.430;2022-08-07T02:41:52;7.55;;;5.20;;
55435;SDS011;41307;53.142;6.430;2022-08-07T02:44:19;7.18;;;5.10;;
55435;SDS011;41307;53.142;6.430;2022-08-07T02:46:47;8.27;;;5.57;;
55435;SDS011;41307;53.142;6.430;2022-08-07T02:49:14;8.70;;;5.75;;
55435;SDS011;41307;53.142;6.430;2022-08-07T02:51:40;8.38;;;5.05;;
55435;SDS011;41307;53.142;6.430;2022-08-07T02:54:08;7.10;;;5.15;;
55435;SDS011;41307;53.142;6.430;2022-08-07T02:56:36;8.27;;;5.50;;
55435;SDS011;41307;53.142;6.430;2022-08-07T02:59:04;9.23;;;5.93;;
55435;SDS011;41307;53.142;6.430;2022-08-07T03:01:34;7.70;;;5.28;;
55435;SDS011;41307;53.142;6.430;2022-08-07T03:04:06;8.38;;;5.40;;
55435;SDS011;41307;53.142;6.430;2022-08-07T03:06:33;9.73;;;5.88;;
55435;SDS011;41307;53.142;6.430;2022-08-07T03:09:01;8.48;;;5.60;;
55435;SDS011;41307;53.142;6.430;2022-08-07T03:11:29;8.30;;;5.10;;
55435;SDS011;41307;53.142;6.430;2022-08-07T03:13:57;7.50;;;5.15;;
55435;SDS011;41307;53.142;6.430;2022-08-07T03:16:23;7.32;;;4.70;;
55435;SDS011;41307;53.142;6.430;2022-08-07T03:18:49;9.13;;;4.88;;
55435;SDS011;41307;53.142;6.430;2022-08-07T03:21:16;7.35;;;5.18;;
55435;SDS011;41307;53.142;6.430;2022-08-07T03:23:43;7.93;;;5.50;;
55435;SDS011;41307;53.142;6.430;2022-08-07T03:26:11;7.43;;;5.22;;
55435;SDS011;41307;53.142;6.430;2022-08-07T03:28:42;7.75;;;4.88;;
55435;SDS011;41307;53.142;6.430;2022-08-07T03:31:09;8.10;;;5.30;;
55435;SDS011;41307;53.142;6.430;2022-08-07T03:34:00;7.50;;;5.35;;
55435;SDS011;41307;53.142;6.430;2022-08-07T03:36:27;6.32;;;4.80;;
55435;SDS011;41307;53.142;6.430;2022-08-07T03:38:56;8.70;;;5.15;;
55435;SDS011;41307;53.142;6.430;2022-08-07T03:41:27;8.48;;;5.70;;
55435;SDS011;41307;53.142;6.430;2022-08-07T03:43:55;6.80;;;4.78;;
55435;SDS011;41307;53.142;6.430;2022-08-07T03:46:21;5.97;;;4.57;;
55435;SDS011;41307;53.142;6.430;2022-08-07T03:48:49;7.53;;;5.18;;
55435;SDS011;41307;53.142;6.430;2022-08-07T03:51:15;7.97;;;5.20;;
55435;SDS011;41307;53.142;6.430;2022-08-07T03:53:42;8.18;;;4.82;;
55435;SDS011;41307;53.142;6.430;2022-08-07T03:56:08;8.40;;;4.95;;
55435;SDS011;41307;53.142;6.430;2022-08-07T03:58:35;7.70;;;4.50;;
55435;SDS011;41307;53.142;6.430;2022-08-07T04:01:02;8.57;;;4.90;;
55435;SDS011;41307;53.142;6.430;2022-08-07T04:03:29;8.73;;;5.00;;
55435;SDS011;41307;53.142;6.430;2022-08-07T04:05:55;7.28;;;4.93;;
55435;SDS011;41307;53.142;6.430;2022-08-07T04:08:21;7.45;;;5.05;;
55435;SDS011;41307;53.142;6.430;2022-08-07T04:10:47;6.88;;;4.60;;
55435;SDS011;41307;53.142;6.430;2022-08-07T04:13:14;7.75;;;4.43;;
55435;SDS011;41307;53.142;6.430;2022-08-07T04:15:40;6.97;;;4.88;;
55435;SDS011;41307;53.142;6.430;2022-08-07T04:18:07;7.90;;;5.22;;
55435;SDS011;41307;53.142;6.430;2022-08-07T04:20:35;8.07;;;4.68;;
55435;SDS011;41307;53.142;6.430;2022-08-07T04:23:01;7.10;;;4.63;;
55435;SDS011;41307;53.142;6.430;2022-08-07T04:25:30;7.72;;;4.63;;
55435;SDS011;41307;53.142;6.430;2022-08-07T04:27:59;9.63;;;5.32;;
55435;SDS011;41307;53.142;6.430;2022-08-07T04:30:25;6.85;;;4.35;;
55435;SDS011;41307;53.142;6.430;2022-08-07T04:32:51;8.98;;;5.05;;
55435;SDS011;41307;53.142;6.430;2022-08-07T04:35:17;6.82;;;5.03;;
55435;SDS011;41307;53.142;6.430;2022-08-07T04:37:43;7.30;;;4.50;;
55435;SDS011;41307;53.142;6.430;2022-08-07T04:40:09;6.90;;;4.38;;
55435;SDS011;41307;53.142;6.430;2022-08-07T04:42:35;7.80;;;4.63;;
55435;SDS011;41307;53.142;6.430;2022-08-07T04:45:01;7.05;;;4.32;;
55435;SDS011;41307;53.142;6.430;2022-08-07T04:47:40;6.07;;;4.35;;
55435;SDS011;41307;53.142;6.430;2022-08-07T04:53:07;6.82;;;4.70;;
55435;SDS011;41307;53.142;6.430;2022-08-07T04:55:50;9.98;;;5.20;;
55435;SDS011;41307;53.142;6.430;2022-08-07T04:58:24;8.00;;;4.97;;
55435;SDS011;41307;53.142;6.430;2022-08-07T05:01:02;7.18;;;4.88;;
55435;SDS011;41307;53.142;6.430;2022-08-07T05:06:16;6.85;;;4.38;;
55435;SDS011;41307;53.142;6.430;2022-08-07T05:08:47;6.90;;;4.82;;
55435;SDS011;41307;53.142;6.430;2022-08-07T05:11:29;8.88;;;4.93;;
55435;SDS011;41307;53.142;6.430;2022-08-07T05:17:01;9.48;;;4.72;;
55435;SDS011;41307;53.142;6.430;2022-08-07T05:19:36;6.72;;;4.60;;
55435;SDS011;41307;53.142;6.430;2022-08-07T05:22:07;10.15;;;5.32;;
55435;SDS011;41307;53.142;6.430;2022-08-07T05:24:35;7.57;;;5.10;;
55435;SDS011;41307;53.142;6.430;2022-08-07T05:27:03;7.72;;;5.15;;
55435;SDS011;41307;53.142;6.430;2022-08-07T05:29:32;8.13;;;4.97;;
55435;SDS011;41307;53.142;6.430;2022-08-07T05:32:01;7.82;;;4.90;;
55435;SDS011;41307;53.142;6.430;2022-08-07T05:34:27;6.90;;;4.57;;
55435;SDS011;41307;53.142;6.430;2022-08-07T05:36:55;10.57;;;4.55;;
55435;SDS011;41307;53.142;6.430;2022-08-07T05:39:23;7.03;;;4.22;;
55435;SDS011;41307;53.142;6.430;2022-08-07T05:41:49;5.80;;;4.07;;
55435;SDS011;41307;53.142;6.430;2022-08-07T05:44:16;6.30;;;3.70;;
55435;SDS011;41307;53.142;6.430;2022-08-07T05:46:43;6.28;;;3.88;;
55435;SDS011;41307;53.142;6.430;2022-08-07T05:49:15;6.38;;;3.47;;
55435;SDS011;41307;53.142;6.430;2022-08-07T05:51:42;5.22;;;3.30;;
55435;SDS011;41307;53.142;6.430;2022-08-07T05:54:09;5.70;;;3.90;;
55435;SDS011;41307;53.142;6.430;2022-08-07T05:56:35;6.07;;;3.92;;
55435;SDS011;41307;53.142;6.430;2022-08-07T05:59:02;5.47;;;3.45;;
55435;SDS011;41307;53.142;6.430;2022-08-07T06:01:34;4.45;;;3.47;;
55435;SDS011;41307;53.142;6.430;2022-08-07T06:04:03;3.90;;;2.97;;
55435;SDS011;41307;53.142;6.430;2022-08-07T06:06:31;4.15;;;2.88;;
55435;SDS011;41307;53.142;6.430;2022-08-07T06:09:02;3.78;;;3.10;;
55435;SDS011;41307;53.142;6.430;2022-08-07T06:11:43;5.47;;;3.05;;
55435;SDS011;41307;53.142;6.430;2022-08-07T06:14:09;5.28;;;3.17;;
55435;SDS011;41307;53.142;6.430;2022-08-07T06:16:36;5.05;;;3.20;;
55435;SDS011;41307;53.142;6.430;2022-08-07T06:19:03;4.97;;;3.03;;
55435;SDS011;41307;53.142;6.430;2022-08-07T06:21:29;4.43;;;3.20;;
55435;SDS011;41307;53.142;6.430;2022-08-07T06:23:56;4.70;;;3.03;;
55435;SDS011;41307;53.142;6.430;2022-08-07T06:26:22;5.43;;;3.53;;
55435;SDS011;41307;53.142;6.430;2022-08-07T06:31:21;6.57;;;3.00;;
55435;SDS011;41307;53.142;6.430;2022-08-07T06:33:49;5.32;;;3.38;;
55435;SDS011;41307;53.142;6.430;2022-08-07T06:36:15;3.97;;;3.30;;
55435;SDS011;41307;53.142;6.430;2022-08-07T06:38:41;3.72;;;2.92;;
55435;SDS011;41307;53.142;6.430;2022-08-07T06:41:10;3.65;;;2.85;;
55435;SDS011;41307;53.142;6.430;2022-08-07T06:43:42;3.60;;;2.60;;
55435;SDS011;41307;53.142;6.430;2022-08-07T06:46:09;3.35;;;2.47;;
55435;SDS011;41307;53.142;6.430;2022-08-07T06:48:35;3.42;;;2.55;;
55435;SDS011;41307;53.142;6.430;2022-08-07T06:51:02;3.67;;;2.30;;
55435;SDS011;41307;53.142;6.430;2022-08-07T06:53:33;4.88;;;2.40;;
55435;SDS011;41307;53.142;6.430;2022-08-07T06:56:02;3.70;;;2.70;;
55435;SDS011;41307;53.142;6.430;2022-08-07T06:58:29;4.78;;;2.60;;
55435;SDS011;41307;53.142;6.430;2022-08-07T07:00:58;3.67;;;2.83;;
55435;SDS011;41307;53.142;6.430;2022-08-07T07:03:24;4.80;;;2.60;;
55435;SDS011;41307;53.142;6.430;2022-08-07T07:05:50;2.88;;;2.38;;
55435;SDS011;41307;53.142;6.430;2022-08-07T07:08:16;3.47;;;2.58;;
55435;SDS011;41307;53.142;6.430;2022-08-07T07:10:42;5.00;;;2.50;;
55435;SDS011;41307;53.142;6.430;2022-08-07T07:15:49;3.67;;;2.17;;
55435;SDS011;41307;53.142;6.430;2022-08-07T07:18:22;3.28;;;2.00;;
55435;SDS011;41307;53.142;6.430;2022-08-07T07:21:37;3.72;;;1.25;;
55435;SDS011;41307;53.142;6.430;2022-08-07T07:23:54;3.35;;;2.15;;
55435;SDS011;41307;53.142;6.430;2022-08-07T07:26:21;3.10;;;1.40;;
55435;SDS011;41307;53.142;6.430;2022-08-07T07:28:58;2.45;;;1.50;;
55435;SDS011;41307;53.142;6.430;2022-08-07T07:31:39;2.10;;;1.40;;
55435;SDS011;41307;53.142;6.430;2022-08-07T07:34:09;3.63;;;1.80;;
55435;SDS011;41307;53.142;6.430;2022-08-07T07:36:40;3.58;;;1.90;;
55435;SDS011;41307;53.142;6.430;2022-08-07T07:39:09;4.32;;;1.92;;
55435;SDS011;41307;53.142;6.430;2022-08-07T07:41:38;5.00;;;2.13;;
55435;SDS011;41307;53.142;6.430;2022-08-07T07:44:05;3.63;;;1.88;;
55435;SDS011;41307;53.142;6.430;2022-08-07T07:46:33;3.47;;;2.35;;
55435;SDS011;41307;53.142;6.430;2022-08-07T07:49:01;4.28;;;2.28;;
55435;SDS011;41307;53.142;6.430;2022-08-07T07:51:29;3.78;;;2.65;;
55435;SDS011;41307;53.142;6.430;2022-08-07T07:53:56;3.92;;;2.83;;
55435;SDS011;41307;53.142;6.430;2022-08-07T07:56:23;3.33;;;2.45;;
55435;SDS011;41307;53.142;6.430;2022-08-07T07:58:50;3.08;;;2.25;;
55435;SDS011;41307;53.142;6.430;2022-08-07T08:01:18;3.47;;;2.15;;
55435;SDS011;41307;53.142;6.430;2022-08-07T08:03:45;3.80;;;2.22;;
55435;SDS011;41307;53.142;6.430;2022-08-07T08:06:13;3.67;;;2.20;;
55435;SDS011;41307;53.142;6.430;2022-08-07T08:08:40;2.92;;;2.10;;
55435;SDS011;41307;53.142;6.430;2022-08-07T08:11:08;3.53;;;2.33;;
55435;SDS011;41307;53.142;6.430;2022-08-07T08:13:39;3.83;;;2.08;;
55435;SDS011;41307;53.142;6.430;2022-08-07T08:16:07;2.45;;;1.98;;
55435;SDS011;41307;53.142;6.430;2022-08-07T08:18:36;3.20;;;2.05;;
55435;SDS011;41307;53.142;6.430;2022-08-07T08:21:03;2.67;;;2.22;;
55435;SDS011;41307;53.142;6.430;2022-08-07T08:23:29;4.07;;;2.28;;
55435;SDS011;41307;53.142;6.430;2022-08-07T08:26:15;2.80;;;2.20;;
55435;SDS011;41307;53.142;6.430;2022-08-07T08:29:02;2.83;;;1.83;;
55435;SDS011;41307;53.142;6.430;2022-08-07T08:31:29;2.50;;;1.77;;
55435;SDS011;41307;53.142;6.430;2022-08-07T08:34:00;2.63;;;2.00;;
55435;SDS011;41307;53.142;6.430;2022-08-07T08:36:30;5.22;;;2.90;;
55435;SDS011;41307;53.142;6.430;2022-08-07T08:38:58;3.78;;;2.13;;
55435;SDS011;41307;53.142;6.430;2022-08-07T08:49:28;2.85;;;1.92;;
55435;SDS011;41307;53.142;6.430;2022-08-07T08:52:02;3.22;;;1.80;;
55435;SDS011;41307;53.142;6.430;2022-08-07T08:54:39;2.70;;;1.88;;
55435;SDS011;41307;53.142;6.430;2022-08-07T08:57:13;3.33;;;1.90;;
55435;SDS011;41307;53.142;6.430;2022-08-07T08:59:51;3.83;;;1.92;;
55435;SDS011;41307;53.142;6.430;2022-08-07T09:10:41;2.45;;;1.70;;
55435;SDS011;41307;53.142;6.430;2022-08-07T09:16:33;3.50;;;1.90;;
55435;SDS011;41307;53.142;6.430;2022-08-07T09:19:06;3.42;;;1.55;;
55435;SDS011;41307;53.142;6.430;2022-08-07T09:21:51;3.08;;;1.58;;
55435;SDS011;41307;53.142;6.430;2022-08-07T09:27:08;1.90;;;1.67;;
55435;SDS011;41307;53.142;6.430;2022-08-07T09:29:43;2.60;;;1.60;;
55435;SDS011;41307;53.142;6.430;2022-08-07T09:40:41;2.40;;;1.55;;
55435;SDS011;41307;53.142;6.430;2022-08-07T09:43:24;4.80;;;1.60;;
55435;SDS011;41307;53.142;6.430;2022-08-07T09:46:41;3.50;;;1.55;;
55435;SDS011;41307;53.142;6.430;2022-08-07T09:49:39;3.88;;;1.40;;
55435;SDS011;41307;53.142;6.430;2022-08-07T09:52:22;2.72;;;1.80;;
55435;SDS011;41307;53.142;6.430;2022-08-07T09:54:56;3.30;;;1.45;;
55435;SDS011;41307;53.142;6.430;2022-08-07T09:57:43;2.95;;;1.50;;
55435;SDS011;41307;53.142;6.430;2022-08-07T10:01:16;3.72;;;1.70;;
55435;SDS011;41307;53.142;6.430;2022-08-07T10:06:16;2.25;;;1.30;;
55435;SDS011;41307;53.142;6.430;2022-08-07T10:25:51;2.75;;;1.42;;
55435;SDS011;41307;53.142;6.430;2022-08-07T10:28:50;2.30;;;1.40;;
55435;SDS011;41307;53.142;6.430;2022-08-07T10:31:29;1.65;;;1.17;;
55435;SDS011;41307;53.142;6.430;2022-08-07T10:40:03;2.17;;;1.08;;
55435;SDS011;41307;53.142;6.430;2022-08-07T10:45:49;1.73;;;0.90;;
55435;SDS011;41307;53.142;6.430;2022-08-07T10:51:27;1.65;;;1.10;;
55435;SDS011;41307;53.142;6.430;2022-08-07T10:54:17;2.30;;;0.90;;
55435;SDS011;41307;53.142;6.430;2022-08-07T11:02:27;1.58;;;0.77;;
55435;SDS011;41307;53.142;6.430;2022-08-07T11:08:28;1.63;;;0.95;;
55435;SDS011;41307;53.142;6.430;2022-08-07T11:11:17;1.40;;;0.93;;
55435;SDS011;41307;53.142;6.430;2022-08-07T11:16:21;2.15;;;1.08;;
55435;SDS011;41307;53.142;6.430;2022-08-07T11:21:30;1.80;;;1.20;;
55435;SDS011;41307;53.142;6.430;2022-08-07T11:29:13;1.98;;;0.80;;
55435;SDS011;41307;53.142;6.430;2022-08-07T11:32:04;1.30;;;0.73;;
55435;SDS011;41307;53.142;6.430;2022-08-07T11:34:44;1.95;;;1.10;;
55435;SDS011;41307;53.142;6.430;2022-08-07T11:45:28;2.33;;;1.10;;
55435;SDS011;41307;53.142;6.430;2022-08-07T11:48:21;2.63;;;1.00;;
55435;SDS011;41307;53.142;6.430;2022-08-07T12:05:41;3.05;;;1.40;;
55435;SDS011;41307;53.142;6.430;2022-08-07T12:10:48;2.47;;;1.40;;
55435;SDS011;41307;53.142;6.430;2022-08-07T12:16:50;5.15;;;1.50;;
55435;SDS011;41307;53.142;6.430;2022-08-07T12:27:32;4.07;;;1.23;;
55435;SDS011;41307;53.142;6.430;2022-08-07T12:30:04;1.98;;;1.23;;
55435;SDS011;41307;53.142;6.430;2022-08-07T12:32:41;2.47;;;1.33;;
55435;SDS011;41307;53.142;6.430;2022-08-07T12:35:24;1.95;;;1.00;;
55435;SDS011;41307;53.142;6.430;2022-08-07T12:37:52;3.40;;;1.20;;
55435;SDS011;41307;53.142;6.430;2022-08-07T12:40:21;1.92;;;1.05;;
55435;SDS011;41307;53.142;6.430;2022-08-07T12:42:52;2.97;;;1.50;;
55435;SDS011;41307;53.142;6.430;2022-08-07T12:45:22;2.13;;;1.45;;
55435;SDS011;41307;53.142;6.430;2022-08-07T12:51:17;2.35;;;1.60;;
55435;SDS011;41307;53.142;6.430;2022-08-07T12:53:52;2.28;;;1.60;;
55435;SDS011;41307;53.142;6.430;2022-08-07T12:56:30;3.05;;;1.70;;
55435;SDS011;41307;53.142;6.430;2022-08-07T12:59:00;2.97;;;1.98;;
55435;SDS011;41307;53.142;6.430;2022-08-07T13:09:41;2.65;;;1.40;;
55435;SDS011;41307;53.142;6.430;2022-08-07T13:20:43;2.58;;;1.67;;
55435;SDS011;41307;53.142;6.430;2022-08-07T13:23:52;3.67;;;1.48;;
55435;SDS011;41307;53.142;6.430;2022-08-07T13:27:33;5.77;;;2.00;;
55435;SDS011;41307;53.142;6.430;2022-08-07T13:30:00;3.58;;;1.55;;
55435;SDS011;41307;53.142;6.430;2022-08-07T13:34:59;2.50;;;1.20;;
55435;SDS011;41307;53.142;6.430;2022-08-07T13:42:51;2.25;;;1.58;;
55435;SDS011;41307;53.142;6.430;2022-08-07T13:45:21;1.85;;;1.40;;
55435;SDS011;41307;53.142;6.430;2022-08-07T13:47:50;3.50;;;1.17;;
55435;SDS011;41307;53.142;6.430;2022-08-07T13:50:19;2.72;;;1.45;;
55435;SDS011;41307;53.142;6.430;2022-08-07T13:52:49;2.03;;;1.42;;
55435;SDS011;41307;53.142;6.430;2022-08-07T13:55:16;2.45;;;0.90;;
55435;SDS011;41307;53.142;6.430;2022-08-07T13:57:45;3.10;;;1.20;;
55435;SDS011;41307;53.142;6.430;2022-08-07T14:00:14;4.72;;;1.50;;
55435;SDS011;41307;53.142;6.430;2022-08-07T14:02:42;4.13;;;1.20;;
55435;SDS011;41307;53.142;6.430;2022-08-07T14:05:12;2.65;;;1.38;;
55435;SDS011;41307;53.142;6.430;2022-08-07T14:07:41;3.13;;;1.00;;
55435;SDS011;41307;53.142;6.430;2022-08-07T14:10:09;2.50;;;1.13;;
55435;SDS011;41307;53.142;6.430;2022-08-07T14:18:23;3.05;;;1.15;;
55435;SDS011;41307;53.142;6.430;2022-08-07T14:21:12;3.30;;;1.20;;
55435;SDS011;41307;53.142;6.430;2022-08-07T14:23:47;2.67;;;0.93;;
55435;SDS011;41307;53.142;6.430;2022-08-07T14:26:22;2.47;;;1.00;;
55435;SDS011;41307;53.142;6.430;2022-08-07T14:29:15;2.72;;;1.25;;
55435;SDS011;41307;53.142;6.430;2022-08-07T14:31:45;2.78;;;1.20;;
55435;SDS011;41307;53.142;6.430;2022-08-07T14:34:13;2.03;;;1.27;;
55435;SDS011;41307;53.142;6.430;2022-08-07T14:36:41;2.55;;;1.30;;
55435;SDS011;41307;53.142;6.430;2022-08-07T14:39:07;4.82;;;1.40;;
55435;SDS011;41307;53.142;6.430;2022-08-07T14:41:35;4.45;;;1.20;;
55435;SDS011;41307;53.142;6.430;2022-08-07T14:44:05;1.45;;;1.10;;
55435;SDS011;41307;53.142;6.430;2022-08-07T14:46:34;3.95;;;1.90;;
55435;SDS011;41307;53.142;6.430;2022-08-07T14:49:02;3.80;;;1.50;;
55435;SDS011;41307;53.142;6.430;2022-08-07T14:51:30;1.80;;;1.23;;
55435;SDS011;41307;53.142;6.430;2022-08-07T14:53:58;4.07;;;1.45;;
55435;SDS011;41307;53.142;6.430;2022-08-07T14:56:27;2.42;;;1.17;;
55435;SDS011;41307;53.142;6.430;2022-08-07T14:59:00;3.30;;;1.77;;
55435;SDS011;41307;53.142;6.430;2022-08-07T15:01:33;4.45;;;1.42;;
55435;SDS011;41307;53.142;6.430;2022-08-07T15:04:01;3.15;;;1.48;;
55435;SDS011;41307;53.142;6.430;2022-08-07T15:06:30;2.33;;;1.25;;
55435;SDS011;41307;53.142;6.430;2022-08-07T15:09:06;2.42;;;1.60;;
55435;SDS011;41307;53.142;6.430;2022-08-07T15:11:42;1.42;;;1.23;;
55435;SDS011;41307;53.142;6.430;2022-08-07T15:14:24;2.40;;;1.40;;
55435;SDS011;41307;53.142;6.430;2022-08-07T15:16:59;1.95;;;1.33;;
55435;SDS011;41307;53.142;6.430;2022-08-07T15:19:33;3.60;;;1.60;;
55435;SDS011;41307;53.142;6.430;2022-08-07T15:22:01;3.38;;;1.73;;
55435;SDS011;41307;53.142;6.430;2022-08-07T15:24:29;3.05;;;1.42;;
55435;SDS011;41307;53.142;6.430;2022-08-07T15:27:04;3.13;;;1.58;;
55435;SDS011;41307;53.142;6.430;2022-08-07T15:29:42;2.75;;;1.50;;
55435;SDS011;41307;53.142;6.430;2022-08-07T15:32:10;2.97;;;1.50;;
55435;SDS011;41307;53.142;6.430;2022-08-07T15:37:12;2.78;;;1.63;;
55435;SDS011;41307;53.142;6.430;2022-08-07T15:39:40;3.08;;;1.50;;
55435;SDS011;41307;53.142;6.430;2022-08-07T15:45:04;2.72;;;1.65;;
55435;SDS011;41307;53.142;6.430;2022-08-07T15:47:35;3.10;;;1.73;;
55435;SDS011;41307;53.142;6.430;2022-08-07T15:50:07;3.03;;;1.60;;
55435;SDS011;41307;53.142;6.430;2022-08-07T15:52:36;3.45;;;1.65;;
55435;SDS011;41307;53.142;6.430;2022-08-07T15:55:03;3.15;;;1.73;;
55435;SDS011;41307;53.142;6.430;2022-08-07T15:57:32;3.80;;;1.95;;
55435;SDS011;41307;53.142;6.430;2022-08-07T15:59:59;3.25;;;1.70;;
55435;SDS011;41307;53.142;6.430;2022-08-07T16:02:28;3.67;;;1.70;;
55435;SDS011;41307;53.142;6.430;2022-08-07T16:05:10;3.30;;;1.40;;
55435;SDS011;41307;53.142;6.430;2022-08-07T16:07:41;2.83;;;1.73;;
55435;SDS011;41307;53.142;6.430;2022-08-07T16:16:05;4.40;;;2.05;;
55435;SDS011;41307;53.142;6.430;2022-08-07T16:24:31;3.97;;;1.73;;
55435;SDS011;41307;53.142;6.430;2022-08-07T16:27:32;3.38;;;1.63;;
55435;SDS011;41307;53.142;6.430;2022-08-07T16:32:45;3.10;;;1.98;;
55435;SDS011;41307;53.142;6.430;2022-08-07T16:35:18;4.03;;;1.80;;
55435;SDS011;41307;53.142;6.430;2022-08-07T16:38:06;4.18;;;2.10;;
55435;SDS011;41307;53.142;6.430;2022-08-07T16:57:28;4.03;;;2.60;;
55435;SDS011;41307;53.142;6.430;2022-08-07T17:07:52;6.60;;;2.45;;
55435;SDS011;41307;53.142;6.430;2022-08-07T17:21:29;5.20;;;2.43;;
55435;SDS011;41307;53.142;6.430;2022-08-07T17:26:45;7.07;;;2.63;;
55435;SDS011;41307;53.142;6.430;2022-08-07T17:29:19;4.20;;;2.95;;
55435;SDS011;41307;53.142;6.430;2022-08-07T17:34:38;4.50;;;3.22;;
55435;SDS011;41307;53.142;6.430;2022-08-07T17:37:33;6.35;;;4.20;;
55435;SDS011;41307;53.142;6.430;2022-08-07T17:40:06;5.72;;;2.78;;
55435;SDS011;41307;53.142;6.430;2022-08-07T17:45:07;5.40;;;3.50;;
55435;SDS011;41307;53.142;6.430;2022-08-07T17:47:43;3.70;;;2.60;;
55435;SDS011;41307;53.142;6.430;2022-08-07T17:53:06;6.55;;;3.67;;
55435;SDS011;41307;53.142;6.430;2022-08-07T17:58:42;6.00;;;2.80;;
55435;SDS011;41307;53.142;6.430;2022-08-07T18:01:18;7.15;;;2.97;;
55435;SDS011;41307;53.142;6.430;2022-08-07T18:04:03;11.15;;;7.18;;
55435;SDS011;41307;53.142;6.430;2022-08-07T18:06:37;5.20;;;3.72;;
55435;SDS011;41307;53.142;6.430;2022-08-07T18:09:14;6.93;;;2.83;;
55435;SDS011;41307;53.142;6.430;2022-08-07T18:12:07;5.13;;;2.80;;
55435;SDS011;41307;53.142;6.430;2022-08-07T18:15:00;7.55;;;2.33;;
55435;SDS011;41307;53.142;6.430;2022-08-07T18:20:08;4.28;;;1.50;;
55435;SDS011;41307;53.142;6.430;2022-08-07T18:22:41;4.65;;;1.60;;
55435;SDS011;41307;53.142;6.430;2022-08-07T18:25:15;5.93;;;1.52;;
55435;SDS011;41307;53.142;6.430;2022-08-07T18:27:58;4.68;;;1.25;;
55435;SDS011;41307;53.142;6.430;2022-08-07T18:30:50;2.65;;;1.38;;
55435;SDS011;41307;53.142;6.430;2022-08-07T18:53:11;2.83;;;1.20;;
55435;SDS011;41307;53.142;6.430;2022-08-07T18:56:04;5.97;;;1.58;;
55435;SDS011;41307;53.142;6.430;2022-08-07T19:01:15;4.30;;;1.20;;
55435;SDS011;41307;53.142;6.430;2022-08-07T19:04:10;4.07;;;1.30;;
55435;SDS011;41307;53.142;6.430;2022-08-07T19:06:52;4.32;;;1.20;;
55435;SDS011;41307;53.142;6.430;2022-08-07T19:12:13;2.95;;;1.52;;
55435;SDS011;41307;53.142;6.430;2022-08-07T19:17:54;3.05;;;1.40;;
55435;SDS011;41307;53.142;6.430;2022-08-07T19:20:31;3.67;;;1.42;;
55435;SDS011;41307;53.142;6.430;2022-08-07T19:23:01;5.47;;;1.65;;
55435;SDS011;41307;53.142;6.430;2022-08-07T19:25:35;3.13;;;1.35;;
55435;SDS011;41307;53.142;6.430;2022-08-07T19:28:12;2.80;;;1.90;;
55435;SDS011;41307;53.142;6.430;2022-08-07T19:30:45;4.03;;;1.50;;
55435;SDS011;41307;53.142;6.430;2022-08-07T19:33:15;5.40;;;1.80;;
55435;SDS011;41307;53.142;6.430;2022-08-07T19:35:42;6.55;;;1.90;;
55435;SDS011;41307;53.142;6.430;2022-08-07T19:38:15;3.10;;;1.52;;
55435;SDS011;41307;53.142;6.430;2022-08-07T19:40:44;3.80;;;1.35;;
55435;SDS011;41307;53.142;6.430;2022-08-07T19:43:16;3.85;;;1.70;;